sensor_id;sensor_type;location;lat;lon;timestamp;pressure;altitude;pressure_sealevel;temperature;humidity
60087;BME280;45960;53.630;55.972;2023-08-20T00:00:10;100301.06;;;18.76;82.28
60087;BME280;45960;53.630;55.972;2023-08-20T00:01:15;100300.19;;;18.76;82.31
60087;BME280;45960;53.630;55.972;2023-08-20T00:02:23;100296.19;;;18.70;82.18
60087;BME280;45960;53.630;55.972;2023-08-20T00:03:24;100303.91;;;18.75;82.42
60087;BME280;45960;53.630;55.972;2023-08-20T00:04:26;100302.22;;;18.74;82.35
60087;BME280;45960;53.630;55.972;2023-08-20T00:05:28;100299.50;;;18.74;82.44
60087;BME280;45960;53.630;55.972;2023-08-20T00:06:29;100295.03;;;18.73;82.35
60087;BME280;45960;53.630;55.972;2023-08-20T00:07:31;100295.03;;;18.73;82.18
60087;BME280;45960;53.630;55.972;2023-08-20T00:08:32;100297.91;;;18.71;82.15
60087;BME280;45960;53.630;55.972;2023-08-20T00:09:33;100292.66;;;18.70;82.13
60087;BME280;45960;53.630;55.972;2023-08-20T00:10:34;100303.47;;;18.70;82.18
60087;BME280;45960;53.630;55.972;2023-08-20T00:11:36;100301.91;;;18.67;82.26
60087;BME280;45960;53.630;55.972;2023-08-20T00:12:37;100298.38;;;18.67;82.24
60087;BME280;45960;53.630;55.972;2023-08-20T00:13:39;100300.22;;;18.66;82.17
60087;BME280;45960;53.630;55.972;2023-08-20T00:14:52;100295.97;;;18.64;82.25
60087;BME280;45960;53.630;55.972;2023-08-20T00:15:55;100281.50;;;18.55;81.92
60087;BME280;45960;53.630;55.972;2023-08-20T00:16:56;100296.28;;;18.61;82.16
60087;BME280;45960;53.630;55.972;2023-08-20T00:17:57;100298.97;;;18.61;82.28
60087;BME280;45960;53.630;55.972;2023-08-20T00:18:59;100292.84;;;18.59;82.14
60087;BME280;45960;53.630;55.972;2023-08-20T00:20:00;100292.84;;;18.59;82.03
60087;BME280;45960;53.630;55.972;2023-08-20T00:21:02;100295.72;;;18.57;82.30
60087;BME280;45960;53.630;55.972;2023-08-20T00:22:03;100293.16;;;18.55;82.26
60087;BME280;45960;53.630;55.972;2023-08-20T00:23:05;100295.88;;;18.55;82.42
60087;BME280;45960;53.630;55.972;2023-08-20T00:24:06;100302.28;;;18.54;82.24
60087;BME280;45960;53.630;55.972;2023-08-20T00:25:09;100300.56;;;18.53;82.19
60087;BME280;45960;53.630;55.972;2023-08-20T00:26:10;100300.88;;;18.50;82.20
60087;BME280;45960;53.630;55.972;2023-08-20T00:27:12;100296.47;;;18.49;82.58
60087;BME280;45960;53.630;55.972;2023-08-20T00:28:13;100306.59;;;18.47;82.56
60087;BME280;45960;53.630;55.972;2023-08-20T00:29:16;100303.19;;;18.45;82.31
60087;BME280;45960;53.630;55.972;2023-08-20T00:30:17;100306.91;;;18.44;82.41
60087;BME280;45960;53.630;55.972;2023-08-20T00:31:18;100297.09;;;18.43;82.53
60087;BME280;45960;53.630;55.972;2023-08-20T00:32:19;100301.78;;;18.41;82.46
60087;BME280;45960;53.630;55.972;2023-08-20T00:33:20;100294.97;;;18.37;82.40
60087;BME280;45960;53.630;55.972;2023-08-20T00:34:21;100299.53;;;18.37;82.37
60087;BME280;45960;53.630;55.972;2023-08-20T00:35:23;100301.38;;;18.36;82.72
60087;BME280;45960;53.630;55.972;2023-08-20T00:36:24;100300.66;;;18.34;82.65
60087;BME280;45960;53.630;55.972;2023-08-20T00:37:25;100298.13;;;18.32;82.45
60087;BME280;45960;53.630;55.972;2023-08-20T00:38:26;100305.41;;;18.32;82.27
60087;BME280;45960;53.630;55.972;2023-08-20T00:39:29;100302.41;;;18.25;82.26
60087;BME280;45960;53.630;55.972;2023-08-20T00:40:30;100312.09;;;18.28;82.43
60087;BME280;45960;53.630;55.972;2023-08-20T00:41:32;100305.84;;;18.27;82.41
60087;BME280;45960;53.630;55.972;2023-08-20T00:42:33;100310.53;;;18.25;82.51
60087;BME280;45960;53.630;55.972;2023-08-20T00:43:34;100311.53;;;18.24;82.53
60087;BME280;45960;53.630;55.972;2023-08-20T00:44:35;100315.25;;;18.23;82.54
60087;BME280;45960;53.630;55.972;2023-08-20T00:45:36;100302.19;;;18.19;82.63
60087;BME280;45960;53.630;55.972;2023-08-20T00:46:38;100310.13;;;18.20;82.53
60087;BME280;45960;53.630;55.972;2023-08-20T00:47:40;100318.41;;;18.19;82.52
60087;BME280;45960;53.630;55.972;2023-08-20T00:48:41;100326.50;;;18.19;82.55
60087;BME280;45960;53.630;55.972;2023-08-20T00:49:42;100319.41;;;18.18;82.46
60087;BME280;45960;53.630;55.972;2023-08-20T00:50:44;100315.84;;;18.17;82.65
60087;BME280;45960;53.630;55.972;2023-08-20T00:51:45;100315.16;;;18.15;82.49
60087;BME280;45960;53.630;55.972;2023-08-20T00:52:47;100321.41;;;18.16;82.55
60087;BME280;45960;53.630;55.972;2023-08-20T00:53:49;100306.75;;;18.08;82.46
60087;BME280;45960;53.630;55.972;2023-08-20T00:54:50;100324.41;;;18.13;82.51
60087;BME280;45960;53.630;55.972;2023-08-20T00:55:51;100319.00;;;18.13;82.46
60087;BME280;45960;53.630;55.972;2023-08-20T00:56:52;100318.41;;;18.09;82.53
60087;BME280;45960;53.630;55.972;2023-08-20T00:57:53;100322.97;;;18.08;82.52
60087;BME280;45960;53.630;55.972;2023-08-20T00:58:55;100328.38;;;18.08;82.36
60087;BME280;45960;53.630;55.972;2023-08-20T00:59:56;100322.97;;;18.08;82.43
60087;BME280;45960;53.630;55.972;2023-08-20T01:00:57;100325.00;;;18.06;82.37
60087;BME280;45960;53.630;55.972;2023-08-20T01:01:58;100334.94;;;18.06;82.61
60087;BME280;45960;53.630;55.972;2023-08-20T01:02:59;100328.69;;;18.05;82.50
60087;BME280;45960;53.630;55.972;2023-08-20T01:04:00;100325.56;;;18.00;82.45
60087;BME280;45960;53.630;55.972;2023-08-20T01:05:03;100334.38;;;18.02;82.48
60087;BME280;45960;53.630;55.972;2023-08-20T01:07:59;100331.28;;;17.97;82.55
60087;BME280;45960;53.630;55.972;2023-08-20T01:11:03;100319.06;;;17.93;82.33
60087;BME280;45960;53.630;55.972;2023-08-20T01:12:09;100323.75;;;17.91;82.53
60087;BME280;45960;53.630;55.972;2023-08-20T01:13:11;100328.16;;;17.92;82.67
60087;BME280;45960;53.630;55.972;2023-08-20T01:14:16;100323.75;;;17.91;82.54
60087;BME280;45960;53.630;55.972;2023-08-20T01:15:18;100319.34;;;17.90;82.39
60087;BME280;45960;53.630;55.972;2023-08-20T01:16:19;100331.16;;;17.89;82.46
60087;BME280;45960;53.630;55.972;2023-08-20T01:17:20;100323.88;;;17.89;82.32
60087;BME280;45960;53.630;55.972;2023-08-20T01:18:21;100325.75;;;17.89;82.80
60087;BME280;45960;53.630;55.972;2023-08-20T01:19:22;100309.81;;;17.86;82.52
60087;BME280;45960;53.630;55.972;2023-08-20T01:20:28;100318.47;;;17.89;82.83
60087;BME280;45960;53.630;55.972;2023-08-20T01:21:39;100325.75;;;17.89;82.75
60087;BME280;45960;53.630;55.972;2023-08-20T01:26:25;100323.03;;;17.89;82.79
60087;BME280;45960;53.630;55.972;2023-08-20T01:28:58;100325.06;;;17.87;82.49
60087;BME280;45960;53.630;55.972;2023-08-20T01:29:59;100325.31;;;17.84;82.37
60087;BME280;45960;53.630;55.972;2023-08-20T01:31:01;100319.66;;;17.87;82.60
60087;BME280;45960;53.630;55.972;2023-08-20T01:32:04;100319.66;;;17.87;82.55
60087;BME280;45960;53.630;55.972;2023-08-20T01:33:06;100321.47;;;17.86;82.47
60087;BME280;45960;53.630;55.972;2023-08-20T01:34:07;100326.75;;;17.88;82.77
60087;BME280;45960;53.630;55.972;2023-08-20T01:35:12;100318.09;;;17.84;82.38
60087;BME280;45960;53.630;55.972;2023-08-20T01:36:14;100332.16;;;17.88;82.35
60087;BME280;45960;53.630;55.972;2023-08-20T01:37:15;100320.50;;;17.87;82.44
60087;BME280;45960;53.630;55.972;2023-08-20T01:38:17;100331.31;;;17.87;82.38
60087;BME280;45960;53.630;55.972;2023-08-20T01:39:18;100338.41;;;17.88;82.39
60087;BME280;45960;53.630;55.972;2023-08-20T01:40:19;100331.31;;;17.87;82.45
60087;BME280;45960;53.630;55.972;2023-08-20T01:41:20;100331.31;;;17.87;82.57
60087;BME280;45960;53.630;55.972;2023-08-20T01:42:21;100332.16;;;17.88;82.63
60087;BME280;45960;53.630;55.972;2023-08-20T01:43:22;100339.53;;;17.86;82.62
60087;BME280;45960;53.630;55.972;2023-08-20T01:44:23;100335.88;;;17.87;82.69
60087;BME280;45960;53.630;55.972;2023-08-20T01:45:24;100335.16;;;17.85;82.71
60087;BME280;45960;53.630;55.972;2023-08-20T01:46:26;100335.88;;;17.87;82.56
60087;BME280;45960;53.630;55.972;2023-08-20T01:47:27;100338.56;;;17.87;82.45
60087;BME280;45960;53.630;55.972;2023-08-20T01:48:28;100342.13;;;17.87;82.55
60087;BME280;45960;53.630;55.972;2023-08-20T01:49:29;100339.25;;;17.89;82.73
60087;BME280;45960;53.630;55.972;2023-08-20T01:50:31;100344.66;;;17.89;82.51
60087;BME280;45960;53.630;55.972;2023-08-20T01:51:32;100346.38;;;17.90;82.66
60087;BME280;45960;53.630;55.972;2023-08-20T01:52:33;100346.38;;;17.90;82.66
60087;BME280;45960;53.630;55.972;2023-08-20T01:53:34;100348.06;;;17.91;82.93
60087;BME280;45960;53.630;55.972;2023-08-20T01:54:35;100350.66;;;17.93;82.88
60087;BME280;45960;53.630;55.972;2023-08-20T01:55:36;100349.63;;;17.94;82.82
60087;BME280;45960;53.630;55.972;2023-08-20T01:56:37;100352.34;;;17.94;82.71
60087;BME280;45960;53.630;55.972;2023-08-20T01:57:38;100357.75;;;17.94;82.55
60087;BME280;45960;53.630;55.972;2023-08-20T01:58:40;100356.91;;;17.93;82.59
60087;BME280;45960;53.630;55.972;2023-08-20T01:59:41;100349.78;;;17.92;82.37
60087;BME280;45960;53.630;55.972;2023-08-20T02:00:42;100348.94;;;17.92;82.42
60087;BME280;45960;53.630;55.972;2023-08-20T02:01:43;100347.94;;;17.93;82.47
60087;BME280;45960;53.630;55.972;2023-08-20T02:02:44;100356.91;;;17.93;82.39
60087;BME280;45960;53.630;55.972;2023-08-20T02:03:45;100362.31;;;17.93;82.36
60087;BME280;45960;53.630;55.972;2023-08-20T02:04:46;100358.59;;;17.94;82.36
60087;BME280;45960;53.630;55.972;2023-08-20T02:05:47;100358.59;;;17.94;82.49
60087;BME280;45960;53.630;55.972;2023-08-20T02:06:48;100354.88;;;17.95;82.42
60087;BME280;45960;53.630;55.972;2023-08-20T02:07:49;100359.44;;;17.95;82.43
60087;BME280;45960;53.630;55.972;2023-08-20T02:08:50;100360.28;;;17.95;82.68
60087;BME280;45960;53.630;55.972;2023-08-20T02:09:51;100369.13;;;17.97;82.57
60087;BME280;45960;53.630;55.972;2023-08-20T02:11:03;100368.28;;;17.97;82.68
60087;BME280;45960;53.630;55.972;2023-08-20T02:12:04;100369.13;;;17.97;82.58
60087;BME280;45960;53.630;55.972;2023-08-20T02:13:06;100365.44;;;17.98;82.65
60087;BME280;45960;53.630;55.972;2023-08-20T02:14:08;100362.56;;;18.00;82.73
60087;BME280;45960;53.630;55.972;2023-08-20T02:15:09;100361.41;;;18.02;82.68
60087;BME280;45960;53.630;55.972;2023-08-20T02:16:11;100362.28;;;18.03;82.60
60087;BME280;45960;53.630;55.972;2023-08-20T02:17:12;100360.28;;;18.05;82.73
60087;BME280;45960;53.630;55.972;2023-08-20T02:18:14;100357.16;;;18.00;82.60
60087;BME280;45960;53.630;55.972;2023-08-20T02:19:17;100366.25;;;18.08;82.41
60087;BME280;45960;53.630;55.972;2023-08-20T02:20:18;100354.56;;;18.08;82.52
60087;BME280;45960;53.630;55.972;2023-08-20T02:21:19;100351.75;;;18.09;82.57
60087;BME280;45960;53.630;55.972;2023-08-20T02:22:20;100362.56;;;18.09;82.69
60087;BME280;45960;53.630;55.972;2023-08-20T02:23:22;100348.63;;;18.04;82.62
60087;BME280;45960;53.630;55.972;2023-08-20T02:24:26;100364.81;;;18.14;82.65
60087;BME280;45960;53.630;55.972;2023-08-20T02:25:27;100365.66;;;18.15;82.60
60087;BME280;45960;53.630;55.972;2023-08-20T02:26:29;100361.97;;;18.16;82.68
60087;BME280;45960;53.630;55.972;2023-08-20T02:27:30;100346.34;;;18.09;82.48
60087;BME280;45960;53.630;55.972;2023-08-20T02:28:31;100357.28;;;18.18;82.63
60087;BME280;45960;53.630;55.972;2023-08-20T02:29:32;100352.00;;;18.16;82.55
60087;BME280;45960;53.630;55.972;2023-08-20T02:30:41;100361.66;;;18.19;82.59
60087;BME280;45960;53.630;55.972;2023-08-20T02:31:42;100357.94;;;18.20;82.55
60087;BME280;45960;53.630;55.972;2023-08-20T02:32:43;100361.38;;;18.22;82.68
60087;BME280;45960;53.630;55.972;2023-08-20T02:33:44;100352.25;;;18.23;82.60
60087;BME280;45960;53.630;55.972;2023-08-20T02:34:51;100343.75;;;18.18;82.59
60087;BME280;45960;53.630;55.972;2023-08-20T02:35:52;100357.34;;;18.26;82.66
60087;BME280;45960;53.630;55.972;2023-08-20T02:36:53;100359.94;;;18.27;82.62
60087;BME280;45960;53.630;55.972;2023-08-20T02:37:54;100364.19;;;18.30;82.59
60087;BME280;45960;53.630;55.972;2023-08-20T02:38:55;100367.59;;;18.32;82.71
60087;BME280;45960;53.630;55.972;2023-08-20T02:39:56;100365.59;;;18.34;82.76
60087;BME280;45960;53.630;55.972;2023-08-20T02:40:57;100367.31;;;18.35;82.41
60087;BME280;45960;53.630;55.972;2023-08-20T02:41:58;100364.44;;;18.37;82.49
60087;BME280;45960;53.630;55.972;2023-08-20T02:43:01;100370.69;;;18.37;82.61
60087;BME280;45960;53.630;55.972;2023-08-20T02:44:03;100356.19;;;18.38;82.32
60087;BME280;45960;53.630;55.972;2023-08-20T02:45:04;100368.69;;;18.39;82.55
60087;BME280;45960;53.630;55.972;2023-08-20T02:46:05;100365.03;;;18.40;82.70
60087;BME280;45960;53.630;55.972;2023-08-20T02:47:09;100367.56;;;18.42;82.50
60087;BME280;45960;53.630;55.972;2023-08-20T02:48:11;100362.00;;;18.43;82.70
60087;BME280;45960;53.630;55.972;2023-08-20T02:49:12;100370.81;;;18.45;82.68
60087;BME280;45960;53.630;55.972;2023-08-20T02:50:15;100366.09;;;18.47;82.55
60087;BME280;45960;53.630;55.972;2023-08-20T02:51:17;100364.97;;;18.50;82.67
60087;BME280;45960;53.630;55.972;2023-08-20T02:52:18;100365.81;;;18.50;82.65
60087;BME280;45960;53.630;55.972;2023-08-20T02:53:19;100346.47;;;18.45;82.49
60087;BME280;45960;53.630;55.972;2023-08-20T02:54:20;100358.22;;;18.54;82.75
60087;BME280;45960;53.630;55.972;2023-08-20T02:55:21;100356.72;;;18.51;82.51
60087;BME280;45960;53.630;55.972;2023-08-20T02:56:22;100364.22;;;18.58;82.52
60087;BME280;45960;53.630;55.972;2023-08-20T02:57:23;100364.91;;;18.60;82.51
60087;BME280;45960;53.630;55.972;2023-08-20T02:58:24;100360.19;;;18.62;82.50
60087;BME280;45960;53.630;55.972;2023-08-20T02:59:25;100368.00;;;18.65;82.61
60087;BME280;45960;53.630;55.972;2023-08-20T03:00:26;100368.72;;;18.67;82.57
60087;BME280;45960;53.630;55.972;2023-08-20T03:01:28;100365.00;;;18.68;82.64
60087;BME280;45960;53.630;55.972;2023-08-20T03:02:30;100362.28;;;18.68;82.77
60087;BME280;45960;53.630;55.972;2023-08-20T03:03:31;100357.59;;;18.70;82.54
60087;BME280;45960;53.630;55.972;2023-08-20T03:04:33;100367.16;;;18.74;82.42
60087;BME280;45960;53.630;55.972;2023-08-20T03:05:34;100358.88;;;18.75;82.58
60087;BME280;45960;53.630;55.972;2023-08-20T03:06:35;100360.59;;;18.76;82.64
60087;BME280;45960;53.630;55.972;2023-08-20T03:07:36;100368.56;;;18.78;82.56
60087;BME280;45960;53.630;55.972;2023-08-20T03:08:37;100357.44;;;18.81;82.58
60087;BME280;45960;53.630;55.972;2023-08-20T03:09:38;100366.25;;;18.83;82.70
60087;BME280;45960;53.630;55.972;2023-08-20T03:10:40;100365.94;;;18.86;82.60
60087;BME280;45960;53.630;55.972;2023-08-20T03:11:41;100363.94;;;18.88;82.71
60087;BME280;45960;53.630;55.972;2023-08-20T03:12:42;100360.41;;;18.88;82.73
60087;BME280;45960;53.630;55.972;2023-08-20T03:13:44;100365.19;;;18.94;82.45
60087;BME280;45960;53.630;55.972;2023-08-20T03:14:45;100363.16;;;18.96;82.56
60087;BME280;45960;53.630;55.972;2023-08-20T03:15:46;100359.31;;;18.98;82.56
60087;BME280;45960;53.630;55.972;2023-08-20T03:16:47;100351.88;;;19.00;82.33
60087;BME280;45960;53.630;55.972;2023-08-20T03:17:48;100360.72;;;19.03;82.43
60087;BME280;45960;53.630;55.972;2023-08-20T03:18:49;100349.59;;;19.06;82.42
60087;BME280;45960;53.630;55.972;2023-08-20T03:20:09;100347.88;;;19.05;82.33
60087;BME280;45960;53.630;55.972;2023-08-20T03:21:10;100358.41;;;19.08;82.52
60087;BME280;45960;53.630;55.972;2023-08-20T03:22:11;100354.38;;;19.12;82.37
60087;BME280;45960;53.630;55.972;2023-08-20T03:23:12;100357.78;;;19.14;82.63
60087;BME280;45960;53.630;55.972;2023-08-20T03:24:13;100364.59;;;19.18;82.45
60087;BME280;45960;53.630;55.972;2023-08-20T03:25:14;100361.75;;;19.19;82.46
60087;BME280;45960;53.630;55.972;2023-08-20T03:26:15;100358.88;;;19.21;82.52
60087;BME280;45960;53.630;55.972;2023-08-20T03:27:16;100364.00;;;19.24;82.39
60087;BME280;45960;53.630;55.972;2023-08-20T03:28:18;100358.28;;;19.27;82.48
60087;BME280;45960;53.630;55.972;2023-08-20T03:29:20;100355.56;;;19.27;82.39
60087;BME280;45960;53.630;55.972;2023-08-20T03:30:21;100363.06;;;19.33;82.32
60087;BME280;45960;53.630;55.972;2023-08-20T03:31:22;100356.81;;;19.33;82.45
60087;BME280;45960;53.630;55.972;2023-08-20T03:32:24;100360.19;;;19.35;82.02
60087;BME280;45960;53.630;55.972;2023-08-20T03:33:25;100360.19;;;19.35;82.33
60087;BME280;45960;53.630;55.972;2023-08-20T03:34:27;100360.19;;;19.35;82.23
60087;BME280;45960;53.630;55.972;2023-08-20T03:35:28;100366.16;;;19.38;82.22
60087;BME280;45960;53.630;55.972;2023-08-20T03:36:31;100359.41;;;19.42;82.21
60087;BME280;45960;53.630;55.972;2023-08-20T03:37:33;100368.94;;;19.47;82.28
60087;BME280;45960;53.630;55.972;2023-08-20T03:38:34;100359.50;;;19.51;82.17
60087;BME280;45960;53.630;55.972;2023-08-20T03:39:35;100368.31;;;19.53;82.25
60087;BME280;45960;53.630;55.972;2023-08-20T03:40:36;100360.59;;;19.58;82.32
60087;BME280;45960;53.630;55.972;2023-08-20T03:41:38;100361.97;;;19.62;82.39
60087;BME280;45960;53.630;55.972;2023-08-20T03:42:38;100366.06;;;19.66;82.38
60087;BME280;45960;53.630;55.972;2023-08-20T03:43:39;100362.22;;;19.68;82.40
60087;BME280;45960;53.630;55.972;2023-08-20T03:44:41;100367.31;;;19.72;82.49
60087;BME280;45960;53.630;55.972;2023-08-20T03:45:42;100362.44;;;19.75;82.30
60087;BME280;45960;53.630;55.972;2023-08-20T03:46:43;100367.56;;;19.78;82.33
60087;BME280;45960;53.630;55.972;2023-08-20T03:47:44;100362.66;;;19.82;82.23
60087;BME280;45960;53.630;55.972;2023-08-20T03:48:47;100362.34;;;19.85;82.10
60087;BME280;45960;53.630;55.972;2023-08-20T03:49:48;100361.16;;;19.87;82.22
60087;BME280;45960;53.630;55.972;2023-08-20T03:50:49;100359.88;;;19.92;81.97
60087;BME280;45960;53.630;55.972;2023-08-20T03:51:50;100363.94;;;19.96;82.07
60087;BME280;45960;53.630;55.972;2023-08-20T03:52:52;100363.63;;;19.99;82.05
60087;BME280;45960;53.630;55.972;2023-08-20T03:53:53;100365.03;;;20.03;81.93
60087;BME280;45960;53.630;55.972;2023-08-20T03:54:54;100362.97;;;20.05;82.28
60087;BME280;45960;53.630;55.972;2023-08-20T03:55:55;100360.97;;;20.07;82.16
60087;BME280;45960;53.630;55.972;2023-08-20T03:56:56;100357.22;;;20.08;82.32
60087;BME280;45960;53.630;55.972;2023-08-20T03:57:58;100352.88;;;20.15;81.90
60087;BME280;45960;53.630;55.972;2023-08-20T03:58:59;100359.69;;;20.19;82.04
60087;BME280;45960;53.630;55.972;2023-08-20T04:00:00;100358.38;;;20.23;82.20
60087;BME280;45960;53.630;55.972;2023-08-20T04:01:01;100366.19;;;20.26;82.04
60087;BME280;45960;53.630;55.972;2023-08-20T04:02:02;100367.72;;;20.29;81.71
60087;BME280;45960;53.630;55.972;2023-08-20T04:03:03;100365.38;;;20.34;81.92
60087;BME280;45960;53.630;55.972;2023-08-20T04:04:04;100370.63;;;20.35;81.73
60087;BME280;45960;53.630;55.972;2023-08-20T04:05:05;100358.59;;;20.38;81.68
60087;BME280;45960;53.630;55.972;2023-08-20T04:06:07;100358.47;;;20.40;81.69
60087;BME280;45960;53.630;55.972;2023-08-20T04:07:08;100363.38;;;20.44;81.52
60087;BME280;45960;53.630;55.972;2023-08-20T04:08:10;100358.81;;;20.45;81.25
60087;BME280;45960;53.630;55.972;2023-08-20T04:09:11;100369.34;;;20.48;81.20
60087;BME280;45960;53.630;55.972;2023-08-20T04:10:13;100358.16;;;20.51;81.53
60087;BME280;45960;53.630;55.972;2023-08-20T04:11:14;100365.00;;;20.55;81.30
60087;BME280;45960;53.630;55.972;2023-08-20T04:12:15;100357.53;;;20.57;81.46
60087;BME280;45960;53.630;55.972;2023-08-20T04:13:16;100362.66;;;20.60;81.61
60087;BME280;45960;53.630;55.972;2023-08-20T04:14:17;100363.16;;;20.64;81.46
60087;BME280;45960;53.630;55.972;2023-08-20T04:15:19;100357.09;;;20.70;81.52
60087;BME280;45960;53.630;55.972;2023-08-20T04:16:21;100359.31;;;20.74;81.64
60087;BME280;45960;53.630;55.972;2023-08-20T04:17:22;100357.97;;;20.78;81.33
60087;BME280;45960;53.630;55.972;2023-08-20T04:18:23;100356.63;;;20.83;81.17
60087;BME280;45960;53.630;55.972;2023-08-20T04:19:25;100368.88;;;20.87;81.26
60087;BME280;45960;53.630;55.972;2023-08-20T04:20:26;100367.66;;;20.89;81.03
60087;BME280;45960;53.630;55.972;2023-08-20T04:21:27;100364.47;;;20.94;81.33
60087;BME280;45960;53.630;55.972;2023-08-20T04:22:28;100372.97;;;20.99;80.94
60087;BME280;45960;53.630;55.972;2023-08-20T04:23:32;100368.91;;;21.03;81.21
60087;BME280;45960;53.630;55.972;2023-08-20T04:24:34;100371.97;;;21.08;81.15
60087;BME280;45960;53.630;55.972;2023-08-20T04:25:35;100367.22;;;21.10;81.28
60087;BME280;45960;53.630;55.972;2023-08-20T04:26:36;100371.31;;;21.14;80.36
60087;BME280;45960;53.630;55.972;2023-08-20T04:27:37;100369.28;;;21.16;80.26
60087;BME280;45960;53.630;55.972;2023-08-20T04:28:38;100368.94;;;21.19;80.86
60087;BME280;45960;53.630;55.972;2023-08-20T04:29:39;100363.16;;;21.22;80.47
60087;BME280;45960;53.630;55.972;2023-08-20T04:30:41;100361.84;;;21.27;80.69
60087;BME280;45960;53.630;55.972;2023-08-20T04:31:42;100359.63;;;21.30;80.75
60087;BME280;45960;53.630;55.972;2023-08-20T04:32:44;100365.56;;;21.34;80.72
60087;BME280;45960;53.630;55.972;2023-08-20T04:33:45;100350.44;;;21.31;80.57
60087;BME280;45960;53.630;55.972;2023-08-20T04:34:49;100356.47;;;21.43;81.09
60087;BME280;45960;53.630;55.972;2023-08-20T04:35:54;100368.00;;;21.45;80.92
60087;BME280;45960;53.630;55.972;2023-08-20T04:36:55;100358.50;;;21.49;80.62
60087;BME280;45960;53.630;55.972;2023-08-20T04:37:57;100359.84;;;21.53;80.84
60087;BME280;45960;53.630;55.972;2023-08-20T04:38:59;100361.22;;;21.57;80.29
60087;BME280;45960;53.630;55.972;2023-08-20T04:40:00;100359.19;;;21.59;80.61
60087;BME280;45960;53.630;55.972;2023-08-20T04:41:03;100367.66;;;21.64;80.15
60087;BME280;45960;53.630;55.972;2023-08-20T04:42:04;100362.75;;;21.68;80.11
60087;BME280;45960;53.630;55.972;2023-08-20T04:43:05;100363.25;;;21.72;79.82
60087;BME280;45960;53.630;55.972;2023-08-20T04:44:06;100364.59;;;21.76;80.01
60087;BME280;45960;53.630;55.972;2023-08-20T04:45:08;100368.00;;;21.78;79.69
60087;BME280;45960;53.630;55.972;2023-08-20T04:46:11;100357.97;;;21.78;79.55
60087;BME280;45960;53.630;55.972;2023-08-20T04:47:12;100361.88;;;21.84;79.51
60087;BME280;45960;53.630;55.972;2023-08-20T04:48:14;100361.53;;;21.87;79.41
60087;BME280;45960;53.630;55.972;2023-08-20T04:49:15;100359.50;;;21.89;79.69
60087;BME280;45960;53.630;55.972;2023-08-20T04:50:16;100365.63;;;21.91;79.22
60087;BME280;45960;53.630;55.972;2023-08-20T04:51:19;100370.72;;;21.94;78.81
60087;BME280;45960;53.630;55.972;2023-08-20T04:52:21;100361.72;;;21.94;78.51
60087;BME280;45960;53.630;55.972;2023-08-20T04:53:23;100357.13;;;21.94;78.70
60087;BME280;45960;53.630;55.972;2023-08-20T04:54:24;100366.81;;;21.97;78.60
60087;BME280;45960;53.630;55.972;2023-08-20T04:55:26;100359.16;;;21.92;78.46
60087;BME280;45960;53.630;55.972;2023-08-20T04:56:27;100364.78;;;21.99;78.51
60087;BME280;45960;53.630;55.972;2023-08-20T04:57:30;100361.50;;;22.03;78.83
60087;BME280;45960;53.630;55.972;2023-08-20T04:58:32;100366.59;;;22.06;78.84
60087;BME280;45960;53.630;55.972;2023-08-20T04:59:33;100357.09;;;22.10;78.85
60087;BME280;45960;53.630;55.972;2023-08-20T05:00:49;100361.16;;;22.15;79.31
60087;BME280;45960;53.630;55.972;2023-08-20T05:01:50;100356.91;;;22.20;79.32
60087;BME280;45960;53.630;55.972;2023-08-20T05:02:54;100367.97;;;22.27;79.15
60087;BME280;45960;53.630;55.972;2023-08-20T05:03:57;100361.84;;;22.33;79.02
60087;BME280;45960;53.630;55.972;2023-08-20T05:04:59;100354.00;;;22.38;79.05
60087;BME280;45960;53.630;55.972;2023-08-20T05:06:00;100358.75;;;22.44;78.73
60087;BME280;45960;53.630;55.972;2023-08-20T05:07:01;100360.06;;;22.48;79.03
60087;BME280;45960;53.630;55.972;2023-08-20T05:08:02;100355.63;;;22.55;79.00
60087;BME280;45960;53.630;55.972;2023-08-20T05:09:03;100350.50;;;22.61;78.79
60087;BME280;45960;53.630;55.972;2023-08-20T05:10:04;100359.66;;;22.68;78.58
60087;BME280;45960;53.630;55.972;2023-08-20T05:11:05;100358.94;;;22.74;78.39
60087;BME280;45960;53.630;55.972;2023-08-20T05:12:08;100354.00;;;22.77;78.02
60087;BME280;45960;53.630;55.972;2023-08-20T05:13:10;100352.81;;;22.80;77.86
60087;BME280;45960;53.630;55.972;2023-08-20T05:14:12;100351.59;;;22.83;77.80
60087;BME280;45960;53.630;55.972;2023-08-20T05:15:13;100354.97;;;22.85;77.25
60087;BME280;45960;53.630;55.972;2023-08-20T05:16:14;100357.19;;;22.89;77.72
60087;BME280;45960;53.630;55.972;2023-08-20T05:17:15;100350.53;;;22.92;77.72
60087;BME280;45960;53.630;55.972;2023-08-20T05:18:16;100355.13;;;22.99;77.92
60087;BME280;45960;53.630;55.972;2023-08-20T05:19:17;100347.91;;;23.07;77.71
60087;BME280;45960;53.630;55.972;2023-08-20T05:20:18;100350.94;;;23.12;77.33
60087;BME280;45960;53.630;55.972;2023-08-20T05:21:19;100341.38;;;23.16;77.44
60087;BME280;45960;53.630;55.972;2023-08-20T05:22:20;100345.44;;;23.20;77.64
60087;BME280;45960;53.630;55.972;2023-08-20T05:23:21;100345.75;;;23.25;77.52
60087;BME280;45960;53.630;55.972;2023-08-20T05:24:22;100352.53;;;23.29;77.23
60087;BME280;45960;53.630;55.972;2023-08-20T05:25:23;100341.94;;;23.34;77.04
60087;BME280;45960;53.630;55.972;2023-08-20T05:26:25;100343.25;;;23.38;77.81
60087;BME280;45960;53.630;55.972;2023-08-20T05:27:26;100341.50;;;23.45;77.81